createdAt,value
2023-01-19T00:00:54.953Z,4.17
2023-01-19T00:03:22.000Z,4.14
2023-01-19T00:05:48.965Z,4.15
2023-01-19T00:08:16.767Z,4.11
2023-01-19T00:10:46.406Z,4.07
2023-01-19T00:13:14.206Z,4.06
2023-01-19T00:15:41.224Z,4.01
2023-01-19T00:18:09.855Z,3.96
2023-01-19T00:20:38.340Z,4.03
2023-01-19T00:23:05.308Z,4.03
2023-01-19T00:25:32.389Z,4.01
2023-01-19T00:28:01.549Z,4.09
2023-01-19T00:30:29.026Z,4.11
2023-01-19T00:32:56.129Z,4.10
2023-01-19T00:35:23.037Z,4.16
2023-01-19T00:37:49.989Z,4.10
2023-01-19T00:40:17.573Z,4.06
2023-01-19T00:42:44.724Z,4.06
2023-01-19T00:45:14.585Z,4.06
2023-01-19T00:47:41.553Z,4.07
2023-01-19T00:50:11.903Z,4.12
2023-01-19T00:52:39.922Z,4.00
2023-01-19T00:55:08.056Z,4.06
2023-01-19T00:57:35.159Z,4.09
2023-01-19T01:00:02.290Z,4.01
2023-01-19T01:02:29.405Z,4.05
2023-01-19T01:04:56.763Z,4.04
2023-01-19T01:07:24.705Z,3.98
2023-01-19T01:09:51.734Z,4.00
2023-01-19T01:12:18.595Z,3.96
2023-01-19T01:14:45.796Z,3.97
2023-01-19T01:17:14.330Z,3.91
2023-01-19T01:19:41.744Z,3.87
2023-01-19T01:22:09.582Z,3.87
2023-01-19T01:24:36.500Z,3.88
2023-01-19T01:27:03.374Z,3.83
2023-01-19T01:29:30.250Z,3.80
2023-01-19T01:31:57.089Z,3.70
2023-01-19T01:34:23.977Z,3.70
2023-01-19T01:36:51.350Z,3.66
2023-01-19T01:39:18.185Z,3.63
2023-01-19T01:41:45.090Z,3.62
2023-01-19T01:44:50.547Z,3.54
2023-01-19T01:47:23.464Z,3.45
2023-01-19T01:49:56.346Z,3.47
2023-01-19T01:52:23.942Z,3.36
2023-01-19T01:54:50.755Z,3.25
2023-01-19T01:57:17.606Z,3.26
2023-01-19T01:59:47.031Z,3.21
2023-01-19T02:02:42.151Z,3.08
2023-01-19T02:05:33.492Z,3.04
2023-01-19T02:08:28.373Z,3.01
2023-01-19T02:11:14.488Z,3.00
2023-01-19T02:13:46.930Z,2.96
2023-01-19T02:16:15.202Z,2.91
2023-01-19T02:18:43.231Z,2.87
2023-01-19T02:21:35.716Z,2.80
2023-01-19T02:24:03.158Z,2.71
2023-01-19T02:26:33.713Z,2.70
2023-01-19T02:29:20.570Z,2.69
2023-01-19T02:31:52.842Z,2.67
2023-01-19T02:34:21.086Z,2.58
2023-01-19T02:36:59.236Z,2.66
2023-01-19T02:39:29.510Z,2.63
2023-01-19T02:42:01.457Z,2.62
2023-01-19T02:44:29.709Z,2.64
2023-01-19T02:46:56.935Z,2.66
2023-01-19T02:49:24.150Z,2.63
2023-01-19T02:51:51.003Z,2.68
2023-01-19T02:54:23.888Z,2.69
2023-01-19T02:56:56.956Z,2.55
2023-01-19T02:59:55.237Z,2.51
2023-01-19T03:02:51.355Z,2.54
2023-01-19T03:05:34.135Z,2.51
2023-01-19T03:08:10.256Z,2.50
2023-01-19T03:11:05.335Z,2.42
2023-01-19T03:13:44.306Z,2.39
2023-01-19T03:16:48.855Z,2.41
2023-01-19T03:19:16.182Z,2.38
2023-01-19T03:21:45.975Z,2.34
2023-01-19T03:24:13.947Z,2.35
2023-01-19T03:26:49.506Z,2.35
2023-01-19T03:29:18.821Z,2.28
2023-01-19T03:31:47.483Z,2.32
2023-01-19T03:34:15.325Z,2.32
2023-01-19T03:36:48.932Z,2.30
2023-01-19T03:39:21.548Z,2.29
2023-01-19T03:41:51.394Z,2.26
2023-01-19T03:44:18.308Z,2.19
2023-01-19T03:46:46.472Z,2.21
2023-01-19T03:49:13.838Z,2.18
2023-01-19T03:51:40.880Z,2.12
2023-01-19T03:54:09.401Z,2.17
2023-01-19T03:56:36.400Z,2.17
2023-01-19T03:59:05.628Z,2.15
2023-01-19T04:01:32.758Z,2.11
2023-01-19T04:03:59.743Z,2.18
2023-01-19T04:06:27.004Z,2.14
2023-01-19T04:08:54.652Z,2.17
2023-01-19T04:11:21.554Z,2.16
2023-01-19T04:13:48.501Z,2.16
2023-01-19T04:16:19.991Z,2.20
2023-01-19T04:18:47.438Z,2.17
2023-01-19T04:21:14.876Z,2.19
2023-01-19T04:23:41.796Z,2.18
2023-01-19T04:26:09.047Z,2.18
2023-01-19T04:28:39.673Z,2.22
2023-01-19T04:31:07.394Z,2.25
2023-01-19T04:33:34.533Z,2.25
2023-01-19T04:36:01.688Z,2.34
2023-01-19T04:38:28.888Z,2.39
2023-01-19T04:40:55.935Z,2.40
2023-01-19T04:43:23.716Z,2.39
2023-01-19T04:45:51.299Z,2.48
2023-01-19T04:48:19.119Z,2.48
2023-01-19T04:50:46.419Z,2.53
2023-01-19T04:53:13.987Z,2.52
2023-01-19T04:55:41.362Z,2.55
2023-01-19T04:58:08.288Z,2.55
2023-01-19T05:00:35.090Z,2.53
2023-01-19T05:03:02.368Z,2.52
2023-01-19T05:05:29.595Z,2.49
2023-01-19T05:07:56.574Z,2.51
2023-01-19T05:10:23.903Z,2.55
2023-01-19T05:12:51.317Z,2.56
2023-01-19T05:15:18.353Z,2.55
2023-01-19T05:17:45.515Z,2.54
2023-01-19T05:20:15.900Z,2.60
2023-01-19T05:22:43.913Z,2.55
2023-01-19T05:25:10.781Z,2.48
2023-01-19T05:27:38.782Z,2.47
2023-01-19T05:30:06.770Z,2.51
2023-01-19T05:32:33.743Z,2.58
2023-01-19T05:35:00.712Z,2.67
2023-01-19T05:37:27.560Z,2.62
2023-01-19T05:39:54.803Z,2.62
2023-01-19T05:42:21.830Z,2.66
2023-01-19T05:44:49.153Z,2.69
2023-01-19T05:47:16.301Z,2.68
2023-01-19T05:49:43.155Z,2.71
2023-01-19T05:52:10.126Z,2.77
2023-01-19T05:54:37.196Z,2.80
2023-01-19T05:57:04.900Z,2.81
2023-01-19T05:59:31.977Z,2.84
2023-01-19T06:02:00.156Z,2.82
2023-01-19T06:04:27.115Z,2.83
2023-01-19T06:06:54.229Z,2.81
2023-01-19T06:09:21.230Z,2.79
2023-01-19T06:11:48.671Z,2.73
2023-01-19T06:14:15.669Z,2.71
2023-01-19T06:16:42.638Z,2.69
2023-01-19T06:19:09.920Z,2.63
2023-01-19T06:21:36.850Z,2.67
2023-01-19T06:24:04.024Z,2.69
2023-01-19T06:26:31.029Z,2.74
2023-01-19T06:28:58.064Z,2.74
2023-01-19T06:31:25.022Z,2.73
2023-01-19T06:33:51.877Z,2.67
2023-01-19T06:36:18.697Z,2.78
2023-01-19T06:38:46.407Z,2.75
2023-01-19T06:41:13.328Z,2.78
2023-01-19T06:43:40.175Z,2.80
2023-01-19T06:46:07.235Z,2.78
2023-01-19T06:48:34.416Z,2.83
2023-01-19T06:51:01.250Z,2.82
2023-01-19T06:53:30.147Z,2.77
2023-01-19T06:56:01.914Z,2.84
2023-01-19T06:58:30.734Z,2.86
2023-01-19T07:01:05.464Z,2.84
2023-01-19T07:03:33.419Z,2.99
2023-01-19T07:06:02.608Z,3.00
2023-01-19T07:08:30.285Z,3.07
2023-01-19T07:11:25.849Z,3.06
2023-01-19T07:13:55.687Z,3.12
2023-01-19T07:16:23.487Z,3.10
2023-01-19T07:18:50.974Z,2.97
2023-01-19T07:21:18.357Z,2.93
2023-01-19T07:23:48.737Z,2.94
2023-01-19T07:26:18.606Z,3.02
2023-01-19T07:28:47.349Z,2.92
2023-01-19T07:31:15.716Z,2.99
2023-01-19T07:33:42.895Z,3.03
2023-01-19T07:36:10.305Z,2.97
2023-01-19T07:38:37.450Z,3.05
2023-01-19T07:41:06.292Z,3.08
2023-01-19T07:43:34.005Z,3.11
2023-01-19T07:46:02.434Z,3.13
2023-01-19T07:48:29.640Z,3.11
2023-01-19T07:51:18.016Z,3.17
2023-01-19T07:53:50.612Z,3.19
2023-01-19T07:56:17.575Z,3.23
2023-01-19T07:58:44.764Z,3.29
2023-01-19T08:01:13.379Z,3.33
2023-01-19T08:03:40.415Z,3.35
2023-01-19T08:06:07.772Z,3.36
2023-01-19T08:08:34.836Z,3.36
2023-01-19T08:11:01.841Z,3.37
2023-01-19T08:13:28.819Z,3.41
2023-01-19T08:15:55.765Z,3.45
2023-01-19T08:18:22.740Z,3.48
2023-01-19T08:20:49.658Z,3.48
2023-01-19T08:23:18.067Z,3.51
2023-01-19T08:25:45.294Z,3.45
2023-01-19T08:28:14.599Z,3.52
2023-01-19T08:30:43.606Z,3.49
2023-01-19T08:33:12.224Z,3.58
2023-01-19T08:35:41.502Z,3.62
2023-01-19T08:38:09.830Z,3.66
2023-01-19T08:40:38.985Z,3.70
2023-01-19T08:43:08.120Z,3.74
2023-01-19T08:45:35.941Z,3.77
2023-01-19T08:48:02.864Z,3.82
2023-01-19T08:50:31.411Z,3.87
2023-01-19T08:53:00.500Z,3.90
2023-01-19T08:55:29.223Z,3.87
2023-01-19T08:57:58.079Z,3.82
2023-01-19T09:00:25.481Z,3.78
2023-01-19T09:02:52.305Z,3.71
2023-01-19T09:05:19.517Z,3.82
2023-01-19T09:07:49.987Z,3.86
2023-01-19T09:10:17.563Z,3.91
2023-01-19T09:12:45.108Z,3.92
2023-01-19T09:15:14.038Z,3.96
2023-01-19T09:17:42.336Z,3.93
2023-01-19T09:20:10.899Z,3.93
2023-01-19T09:22:39.680Z,3.94
2023-01-19T09:25:07.913Z,3.91
2023-01-19T09:27:35.654Z,3.84
2023-01-19T09:30:04.281Z,3.92
2023-01-19T09:32:31.378Z,3.93
2023-01-19T09:34:58.426Z,3.96
2023-01-19T09:37:25.370Z,3.99
2023-01-19T09:39:52.362Z,4.02
2023-01-19T09:42:26.327Z,4.04
2023-01-19T09:44:54.524Z,4.07
2023-01-19T09:47:27.400Z,4.09
2023-01-19T09:50:05.537Z,4.08
2023-01-19T09:52:36.328Z,4.09
2023-01-19T09:55:03.646Z,4.08
2023-01-19T09:57:32.196Z,4.11
2023-01-19T09:59:59.530Z,4.13
2023-01-19T10:02:53.253Z,4.14
2023-01-19T10:05:34.793Z,4.12
2023-01-19T10:08:12.012Z,4.15
2023-01-19T10:10:42.347Z,4.12
2023-01-19T10:13:30.815Z,4.10
2023-01-19T10:16:39.225Z,4.10
2023-01-19T10:19:29.631Z,4.06
2023-01-19T10:21:59.085Z,4.04
2023-01-19T10:24:38.907Z,4.02
2023-01-19T10:27:13.610Z,3.99
2023-01-19T10:29:40.651Z,3.99
2023-01-19T10:32:11.408Z,3.89
2023-01-19T10:34:38.476Z,3.85
2023-01-19T10:37:16.576Z,3.84
2023-01-19T10:39:46.149Z,3.84
2023-01-19T10:42:16.097Z,3.70
2023-01-19T10:44:43.291Z,3.58
2023-01-19T10:47:19.903Z,3.64
2023-01-19T10:49:47.537Z,3.69
2023-01-19T10:52:25.487Z,3.70
2023-01-19T10:54:52.417Z,3.66
2023-01-19T10:57:32.075Z,3.66
2023-01-19T10:59:59.440Z,3.69
2023-01-19T11:02:29.121Z,3.64
2023-01-19T11:05:28.800Z,3.63
2023-01-19T11:07:56.643Z,3.66
2023-01-19T11:10:26.114Z,3.60
2023-01-19T11:13:12.776Z,3.67
2023-01-19T11:16:00.231Z,3.58
2023-01-19T11:18:30.131Z,3.55
2023-01-19T11:21:00.969Z,3.50
2023-01-19T11:23:31.820Z,3.49
2023-01-19T11:26:01.559Z,3.47
2023-01-19T11:28:37.717Z,3.49
2023-01-19T11:31:10.809Z,3.48
2023-01-19T11:33:49.865Z,3.41
2023-01-19T11:36:23.327Z,3.41
2023-01-19T11:39:04.123Z,3.38
2023-01-19T11:41:34.564Z,3.39
2023-01-19T11:44:13.420Z,3.37
2023-01-19T11:46:41.396Z,3.38
2023-01-19T11:49:15.543Z,3.35
2023-01-19T11:52:06.217Z,3.35
2023-01-19T11:54:47.764Z,3.24
2023-01-19T11:57:17.226Z,3.30
2023-01-19T11:59:44.813Z,3.30
2023-01-19T12:02:27.380Z,3.32
2023-01-19T12:04:58.165Z,3.34
2023-01-19T12:07:31.441Z,3.30
2023-01-19T12:10:31.529Z,3.34
2023-01-19T12:12:58.997Z,3.36
2023-01-19T12:15:44.759Z,3.38
2023-01-19T12:18:21.999Z,3.46
2023-01-19T12:20:53.974Z,3.37
2023-01-19T12:23:47.110Z,3.50
2023-01-19T12:26:27.869Z,3.60
2023-01-19T12:28:58.712Z,3.61
2023-01-19T12:31:25.787Z,3.63
2023-01-19T12:33:53.273Z,3.66
2023-01-19T12:36:38.857Z,3.63
2023-01-19T12:39:12.740Z,3.60
2023-01-19T12:41:40.646Z,3.71
2023-01-19T12:44:27.946Z,3.71
2023-01-19T12:46:55.425Z,3.75
2023-01-19T12:49:27.444Z,3.83
2023-01-19T12:52:18.985Z,3.83
2023-01-19T12:54:57.309Z,3.78
2023-01-19T12:57:31.292Z,3.79
2023-01-19T13:00:05.542Z,3.84
2023-01-19T13:02:45.387Z,3.70
2023-01-19T13:05:19.452Z,3.72
2023-01-19T13:08:06.820Z,3.76
2023-01-19T13:11:12.458Z,3.79
2023-01-19T13:13:48.252Z,3.71
2023-01-19T13:16:18.129Z,3.72
2023-01-19T13:19:06.484Z,3.77
2023-01-19T13:21:35.071Z,3.76
2023-01-19T13:24:06.607Z,3.72
2023-01-19T13:26:40.320Z,3.76
2023-01-19T13:29:11.118Z,3.80
2023-01-19T13:31:40.056Z,3.79
2023-01-19T13:34:26.518Z,3.80
2023-01-19T13:36:55.161Z,3.84
2023-01-19T13:39:27.822Z,3.75
2023-01-19T13:41:56.716Z,3.77
2023-01-19T13:44:33.835Z,3.66
2023-01-19T13:47:04.027Z,3.68
2023-01-19T13:49:36.978Z,3.65
2023-01-19T13:52:19.864Z,3.65
2023-01-19T13:55:01.757Z,3.60
2023-01-19T13:57:40.977Z,3.64
2023-01-19T14:00:08.680Z,3.59
2023-01-19T14:02:35.856Z,3.56
2023-01-19T14:05:25.191Z,3.56
2023-01-19T14:08:13.602Z,3.55
2023-01-19T14:10:48.147Z,3.51
2023-01-19T14:13:17.937Z,3.50
2023-01-19T14:15:48.675Z,3.50
2023-01-19T14:18:18.917Z,3.44
2023-01-19T14:21:13.035Z,3.47
2023-01-19T14:23:49.373Z,3.46
2023-01-19T14:26:56.282Z,3.50
2023-01-19T14:29:31.840Z,3.48
2023-01-19T14:32:17.691Z,3.39
2023-01-19T14:34:54.073Z,3.37
2023-01-19T14:37:35.574Z,3.37
2023-01-19T14:40:04.894Z,3.32
2023-01-19T14:42:44.617Z,3.31
2023-01-19T14:45:21.295Z,3.23
2023-01-19T14:48:01.820Z,3.19
2023-01-19T14:50:33.196Z,3.11
2023-01-19T14:53:03.243Z,3.08
2023-01-19T14:55:54.570Z,3.05
2023-01-19T14:58:24.745Z,2.94
2023-01-19T15:00:55.737Z,2.92
2023-01-19T15:03:28.869Z,2.84
2023-01-19T15:06:04.144Z,2.86
2023-01-19T15:08:33.524Z,2.83
2023-01-19T15:11:16.429Z,2.81
2023-01-19T15:13:44.342Z,2.73
2023-01-19T15:16:11.326Z,2.65
2023-01-19T15:18:38.847Z,2.68
2023-01-19T15:21:06.181Z,2.67
2023-01-19T15:23:33.426Z,2.62
2023-01-19T15:26:05.734Z,2.60
2023-01-19T15:28:32.659Z,2.59
2023-01-19T15:31:00.426Z,2.54
2023-01-19T15:33:30.889Z,2.53
2023-01-19T15:35:57.943Z,2.51
2023-01-19T15:38:26.762Z,2.54
2023-01-19T15:40:54.564Z,2.52
2023-01-19T15:43:21.543Z,2.54
2023-01-19T15:45:51.766Z,2.50
2023-01-19T15:48:20.017Z,2.54
2023-01-19T15:50:47.912Z,2.56
2023-01-19T15:53:18.701Z,2.52
2023-01-19T15:55:52.233Z,2.50
2023-01-19T15:58:20.727Z,2.50
2023-01-19T16:00:58.087Z,2.49
2023-01-19T16:03:25.853Z,2.49
2023-01-19T16:05:52.973Z,2.47
2023-01-19T16:08:22.131Z,2.44
2023-01-19T16:10:49.419Z,2.42
2023-01-19T16:13:16.656Z,2.46
2023-01-19T16:15:43.910Z,2.45
2023-01-19T16:18:11.553Z,2.46
2023-01-19T16:20:38.499Z,2.47
2023-01-19T16:23:20.607Z,2.39
2023-01-19T16:25:58.548Z,2.44
2023-01-19T16:28:26.901Z,2.39
2023-01-19T16:30:54.671Z,2.43
2023-01-19T16:33:21.613Z,2.37
2023-01-19T16:35:48.774Z,2.32
2023-01-19T16:38:15.877Z,2.39
2023-01-19T16:40:48.507Z,2.41
2023-01-19T16:43:16.577Z,2.15
2023-01-19T16:45:59.065Z,2.36
2023-01-19T16:48:26.598Z,2.39
2023-01-19T16:51:01.840Z,2.42
2023-01-19T16:53:32.810Z,2.43
2023-01-19T16:55:59.905Z,2.49
2023-01-19T16:58:26.931Z,2.48
2023-01-19T17:00:54.655Z,2.43
2023-01-19T17:03:22.696Z,2.39
2023-01-19T17:05:50.993Z,2.36
2023-01-19T17:08:20.062Z,2.37
2023-01-19T17:10:51.110Z,2.34
2023-01-19T17:13:18.230Z,2.34
2023-01-19T17:15:45.476Z,2.25
2023-01-19T17:18:12.765Z,2.32
2023-01-19T17:20:39.849Z,2.32
2023-01-19T17:23:06.936Z,2.32
2023-01-19T17:25:36.746Z,2.31
2023-01-19T17:28:04.061Z,2.30
2023-01-19T17:30:31.238Z,2.30
2023-01-19T17:32:58.061Z,2.31
2023-01-19T17:35:26.303Z,2.27
2023-01-19T17:37:54.781Z,2.08
2023-01-19T17:40:22.047Z,2.24
2023-01-19T17:42:48.974Z,2.21
2023-01-19T17:45:16.022Z,2.20
2023-01-19T17:47:43.059Z,2.18
2023-01-19T17:50:10.968Z,2.19
2023-01-19T17:52:38.172Z,2.15
2023-01-19T17:55:05.734Z,2.12
2023-01-19T17:57:33.947Z,2.13
2023-01-19T18:00:01.070Z,2.10
2023-01-19T18:02:28.829Z,2.08
2023-01-19T18:04:56.379Z,2.06
2023-01-19T18:07:23.621Z,2.04
2023-01-19T18:09:51.838Z,2.03
2023-01-19T18:12:20.051Z,2.01
2023-01-19T18:14:47.318Z,1.99
2023-01-19T18:17:14.495Z,1.95
2023-01-19T18:19:42.073Z,1.89
2023-01-19T18:22:09.268Z,1.91
2023-01-19T18:24:37.802Z,1.91
2023-01-19T18:27:05.351Z,1.90
2023-01-19T18:29:32.210Z,1.84
2023-01-19T18:31:59.342Z,1.88
2023-01-19T18:34:26.422Z,1.90
2023-01-19T18:36:53.338Z,1.90
2023-01-19T18:39:20.562Z,1.91
2023-01-19T18:41:47.632Z,1.94
2023-01-19T18:44:14.852Z,1.95
2023-01-19T18:46:42.405Z,1.96
2023-01-19T18:49:10.156Z,1.96
2023-01-19T18:51:39.542Z,1.97
2023-01-19T18:54:07.736Z,1.94
2023-01-19T18:56:35.129Z,1.91
2023-01-19T18:59:02.837Z,1.85
2023-01-19T19:01:33.333Z,1.86
2023-01-19T19:04:01.649Z,1.81
2023-01-19T19:06:29.401Z,1.87
2023-01-19T19:08:59.295Z,1.90
2023-01-19T19:11:27.777Z,1.94
2023-01-19T19:14:00.069Z,1.94
2023-01-19T19:16:28.698Z,1.90
2023-01-19T19:18:56.454Z,1.92
2023-01-19T19:21:25.455Z,1.88
2023-01-19T19:23:57.479Z,1.91
2023-01-19T19:26:26.020Z,1.94
2023-01-19T19:28:54.599Z,1.91
2023-01-19T19:31:23.374Z,1.86
2023-01-19T19:33:51.338Z,1.89
2023-01-19T19:36:19.959Z,1.89
2023-01-19T19:38:48.938Z,1.90
2023-01-19T19:41:27.000Z,1.86
2023-01-19T19:43:55.332Z,1.84
2023-01-19T19:46:24.321Z,1.86
2023-01-19T19:48:52.385Z,1.83
2023-01-19T19:51:25.746Z,1.83
2023-01-19T19:53:57.537Z,1.82
2023-01-19T19:56:26.057Z,1.83
2023-01-19T19:58:55.014Z,1.81
2023-01-19T20:01:27.557Z,1.83
2023-01-19T20:03:55.568Z,1.81
2023-01-19T20:06:24.866Z,1.81
2023-01-19T20:08:54.262Z,1.79
2023-01-19T20:11:23.977Z,1.79
2023-01-19T20:13:50.841Z,1.75
2023-01-19T20:16:20.317Z,1.76
2023-01-19T20:18:51.333Z,1.76
2023-01-19T20:21:21.331Z,1.77
2023-01-19T20:23:49.636Z,1.78
2023-01-19T20:26:20.218Z,1.78
2023-01-19T20:28:48.331Z,1.76
2023-01-19T20:31:22.586Z,1.78
2023-01-19T20:33:50.958Z,1.71
2023-01-19T20:36:18.112Z,1.73
2023-01-19T20:38:47.515Z,1.72
2023-01-19T20:41:15.164Z,1.71
2023-01-19T20:43:42.432Z,1.73
2023-01-19T20:46:09.535Z,1.70
2023-01-19T20:48:36.938Z,1.67
2023-01-19T20:51:07.178Z,1.67
2023-01-19T20:53:34.553Z,1.59
2023-01-19T20:56:06.210Z,1.59
2023-01-19T20:58:34.221Z,1.60
2023-01-19T21:01:19.440Z,1.61
2023-01-19T21:03:47.675Z,1.56
2023-01-19T21:06:14.993Z,1.60
2023-01-19T21:08:42.728Z,1.65
2023-01-19T21:11:10.113Z,1.59
2023-01-19T21:13:37.379Z,1.53
2023-01-19T21:16:05.486Z,1.60
2023-01-19T21:18:32.489Z,1.70
2023-01-19T21:20:59.434Z,1.63
2023-01-19T21:23:27.401Z,1.69
2023-01-19T21:25:56.338Z,1.72
2023-01-19T21:28:23.963Z,1.68
2023-01-19T21:30:52.276Z,1.65
2023-01-19T21:33:20.111Z,1.66
2023-01-19T21:35:57.437Z,1.68
2023-01-19T21:38:27.012Z,1.64
2023-01-19T21:40:56.070Z,1.64
2023-01-19T21:43:24.152Z,1.58
2023-01-19T21:45:51.589Z,1.59
2023-01-19T21:48:18.537Z,1.59
2023-01-19T21:50:45.943Z,1.62
2023-01-19T21:53:12.866Z,1.59
2023-01-19T21:55:43.739Z,1.57
2023-01-19T21:58:10.524Z,1.57
2023-01-19T22:00:37.443Z,1.55
2023-01-19T22:03:04.959Z,1.51
2023-01-19T22:05:36.991Z,1.47
2023-01-19T22:08:06.311Z,1.46
2023-01-19T22:10:36.849Z,1.47
2023-01-19T22:13:03.760Z,1.46
2023-01-19T22:15:31.403Z,1.46
2023-01-19T22:17:58.250Z,1.41
2023-01-19T22:20:25.133Z,1.44
2023-01-19T22:22:52.005Z,1.47
2023-01-19T22:25:22.008Z,1.48
2023-01-19T22:27:49.303Z,1.41
2023-01-19T22:30:16.523Z,1.33
2023-01-19T22:32:43.403Z,1.31
2023-01-19T22:35:10.243Z,1.29
2023-01-19T22:37:37.185Z,1.35
2023-01-19T22:40:07.612Z,1.33
2023-01-19T22:42:34.409Z,1.36
2023-01-19T22:45:01.319Z,1.35
2023-01-19T22:47:28.205Z,1.39
2023-01-19T22:49:55.048Z,1.30
2023-01-19T22:52:21.892Z,1.25
2023-01-19T22:54:48.685Z,1.22
2023-01-19T22:57:15.532Z,1.19
2023-01-19T22:59:43.696Z,1.19
2023-01-19T23:02:12.356Z,1.19
2023-01-19T23:04:39.584Z,1.12
2023-01-19T23:07:09.269Z,1.10
2023-01-19T23:09:38.012Z,1.05
2023-01-19T23:12:05.095Z,1.07
2023-01-19T23:14:31.974Z,1.10
2023-01-19T23:16:58.794Z,1.14
2023-01-19T23:19:25.770Z,1.24
2023-01-19T23:21:52.979Z,1.18
2023-01-19T23:24:19.906Z,1.16
2023-01-19T23:26:49.347Z,1.13
2023-01-19T23:29:17.797Z,1.13
2023-01-19T23:31:47.019Z,1.14
2023-01-19T23:34:14.245Z,1.06
2023-01-19T23:36:41.818Z,0.84
2023-01-19T23:39:22.234Z,0.73
2023-01-19T23:41:50.143Z,0.66
2023-01-19T23:44:17.349Z,0.59
2023-01-19T23:46:44.533Z,0.57
2023-01-19T23:49:12.314Z,0.58
2023-01-19T23:51:39.936Z,0.58
2023-01-19T23:54:06.806Z,0.58
2023-01-19T23:56:36.354Z,0.57
2023-01-19T23:59:08.786Z,0.57
